FALE

King Shaka International Airport

Durban, South Africa
METAR FALE 170700Z 09004KT CAVOK 27/17 Q1014 NOSIG
Observed Flight Rules
Dec-17 @ 07:00 UTC (an hour ago) Visual Flight Rules
Wind Visibility Clouds
90° at 4 knots 10,000+ meters
  • Clear skies
Temperatures Readings
Current 27°C / 81°F
Dewpoint 17°C / 63°F
Humidity 54%
Altimeter 29.94" Hg
Pressure 1014 hPa
Elevation 109
METAR FALE 170700Z 09004KT CAVOK 27/17 Q1014 NOSIG
Observed Flight Rules
Dec-17 @ 07:00 UTC
(an hour ago)
VFR
Wind Visibility
90° at 4 knots 10,000+ meters
Clouds
  • Clear skies
Temperature Dewpoint
27°C / 81°F 17°C / 63°F
Humidity Altimeter Pressure
54% 29.94" Hg 1014 hPa